Time;durP1;ratioP1;P1;durP2;ratioP2;P2;SDS_P1;SDS_P2;PMS_P1;PMS_P2;Temp;Humidity;BMP_temperature;BMP_pressure;BME280_temperature;BME280_humidity;BME280_pressure;Samples;Min_cycle;Max_cycle;Signal;HPM_P1;HPM_P2
2022/01/03 00:00:22;;;;;;;12.32;1.35;;;8.40;99.90;;;;;;5045290;28;20526;-80
2022/01/03 00:02:49;;;;;;;8.27;1.70;;;8.40;99.90;;;;;;5063694;28;20072;-81
2022/01/03 00:05:15;;;;;;;;;;;8.50;99.90;;;;;;5062403;28;20040;-81
2022/01/03 00:07:43;;;;;;;14.60;2.22;;;8.60;99.90;;;;;;5056601;28;19921;-80
2022/01/03 00:10:11;;;;;;;11.48;1.73;;;8.50;99.90;;;;;;5037339;28;20033;-80
2022/01/03 00:12:38;;;;;;;11.50;2.05;;;8.50;99.90;;;;;;5059476;28;20496;-81
2022/01/03 00:15:07;;;;;;;10.80;1.92;;;8.60;99.90;;;;;;5030420;28;20028;-80
2022/01/03 00:17:32;;;;;;;11.20;1.95;;;8.60;99.90;;;;;;5042144;28;20025;-80
2022/01/03 00:19:58;;;;;;;12.02;1.90;;;8.60;99.90;;;;;;5025413;28;20077;-81
2022/01/03 00:22:24;;;;;;;10.88;1.95;;;8.70;99.90;;;;;;5046970;28;20115;-81
2022/01/03 00:25:05;;;;;;;7.03;2.00;;;8.80;99.90;;;;;;5068937;28;20062;-81
2022/01/03 00:28:08;;;;;;;11.77;2.03;;;8.80;99.90;;;;;;5064383;28;20032;-80
2022/01/03 00:30:37;;;;;;;16.92;2.13;;;8.80;99.90;;;;;;5031843;28;20071;-80
2022/01/03 00:33:05;;;;;;;7.90;1.98;;;8.90;99.90;;;;;;5049997;28;20047;-81
2022/01/03 00:35:35;;;;;;;20.80;2.47;;;9.00;99.90;;;;;;5061804;28;20113;-81
2022/01/03 00:38:04;;;;;;;9.25;2.00;;;9.00;99.90;;;;;;5046968;28;20029;-81
2022/01/03 00:40:30;;;;;;;12.95;1.92;;;9.00;99.90;;;;;;5062271;28;20083;-82
2022/01/03 00:42:56;;;;;;;13.18;2.47;;;9.50;99.90;;;;;;5050430;28;20109;-81
2022/01/03 00:45:22;;;;;;;11.95;2.58;;;9.00;99.90;;;;;;5059213;28;20496;-82
2022/01/03 00:47:47;;;;;;;12.98;2.40;;;9.10;99.90;;;;;;5007540;28;20072;-81
2022/01/03 00:50:16;;;;;;;12.93;2.87;;;9.00;99.90;;;;;;5055514;28;20043;-82
2022/01/03 00:52:42;;;;;;;11.77;2.05;;;8.90;99.90;;;;;;5065014;28;20275;-82
2022/01/03 00:55:09;;;;;;;13.45;2.38;;;9.00;99.90;;;;;;5045563;28;20040;-81
2022/01/03 00:57:43;;;;;;;13.18;2.65;;;9.00;99.90;;;;;;5043225;28;20087;-82
2022/01/03 01:00:10;;;;;;;11.40;2.15;;;9.10;99.90;;;;;;5039502;28;20509;-81
2022/01/03 01:02:37;;;;;;;11.68;1.75;;;9.10;99.90;;;;;;5044653;28;20032;-82
2022/01/03 01:05:05;;;;;;;13.13;2.20;;;9.00;99.90;;;;;;5051142;28;20496;-82
2022/01/03 01:07:32;;;;;;;14.85;2.30;;;9.00;99.90;;;;;;5059060;28;20503;-82
2022/01/03 01:10:04;;;;;;;13.85;2.20;;;9.00;99.90;;;;;;5038381;28;20478;-82
2022/01/03 01:12:31;;;;;;;16.15;2.50;;;9.00;99.90;;;;;;5055120;28;20459;-82
2022/01/03 01:14:57;;;;;;;17.08;2.58;;;9.00;99.90;;;;;;5029188;28;20041;-81
2022/01/03 01:17:26;;;;;;;;;;;9.10;99.90;;;;;;5044215;28;20040;-82
2022/01/03 01:19:53;;;;;;;17.52;2.58;;;9.10;99.90;;;;;;5057604;28;19960;-82
2022/01/03 01:22:22;;;;;;;21.20;2.80;;;9.00;99.90;;;;;;5045168;28;20123;-82
2022/01/03 01:24:50;;;;;;;16.58;2.53;;;9.10;99.90;;;;;;5053261;28;20040;-79
2022/01/03 01:30:00;;;;;;;19.35;2.65;;;9.10;99.90;;;;;;5037817;28;20072;-79
2022/01/03 01:32:27;;;;;;;25.08;3.95;;;9.10;99.90;;;;;;5030912;28;20059;-80
2022/01/03 01:34:56;;;;;;;13.27;2.80;;;9.10;99.90;;;;;;5044141;28;20048;-80
2022/01/03 01:37:23;;;;;;;19.63;3.22;;;9.10;99.90;;;;;;5057118;28;20443;-80
2022/01/03 01:39:49;;;;;;;11.38;2.25;;;9.20;99.90;;;;;;5055264;28;20392;-80
2022/01/03 01:42:18;;;;;;;20.42;2.33;;;9.10;99.90;;;;;;5016887;28;20430;-80
2022/01/03 01:44:49;;;;;;;14.73;2.53;;;9.20;99.90;;;;;;5056662;28;20045;-80
2022/01/03 01:47:16;;;;;;;22.40;3.30;;;9.20;99.90;;;;;;5033292;28;20511;-80
2022/01/03 01:49:47;;;;;;;19.13;3.17;;;9.20;99.90;;;;;;5068916;28;20107;-80
2022/01/03 01:52:25;;;;;;;20.05;2.25;;;9.20;99.90;;;;;;5055720;28;20041;-80
2022/01/03 01:54:56;;;;;;;19.75;2.60;;;9.20;99.90;;;;;;5061668;28;20530;-80
2022/01/03 01:57:54;;;;;;;12.43;2.60;;;9.20;99.90;;;;;;5037728;28;20052;-80
2022/01/03 02:00:20;;;;;;;16.20;2.13;;;9.30;99.90;;;;;;5045469;28;20048;-80
2022/01/03 02:03:00;;;;;;;17.73;3.03;;;9.30;99.90;;;;;;5037691;28;20044;-80
2022/01/03 02:05:56;;;;;;;21.50;2.78;;;9.20;99.90;;;;;;5050465;28;20083;-80
2022/01/03 02:08:37;;;;;;;18.88;2.88;;;9.30;99.90;;;;;;5065534;28;20064;-80
2022/01/03 02:11:12;;;;;;;16.73;3.20;;;9.30;99.90;;;;;;5059477;28;20392;-80
2022/01/03 02:13:39;;;;;;;19.08;2.90;;;9.30;99.90;;;;;;5054918;28;20086;-80
2022/01/03 02:16:05;;;;;;;18.75;2.90;;;9.30;99.90;;;;;;5040083;28;20036;-80
2022/01/03 02:18:32;;;;;;;21.67;2.72;;;9.30;99.90;;;;;;5035943;28;20056;-80
2022/01/03 02:20:58;;;;;;;22.48;3.35;;;10.00;99.90;;;;;;5042572;28;20037;-80
2022/01/03 02:23:24;;;;;;;20.73;3.08;;;9.40;99.90;;;;;;5040086;28;20081;-80
2022/01/03 02:25:50;;;;;;;18.67;2.97;;;9.40;99.90;;;;;;5055698;28;20036;-80
2022/01/03 02:28:20;;;;;;;23.95;3.30;;;9.40;99.90;;;;;;5055762;28;20034;-80
2022/01/03 02:30:46;;;;;;;22.35;3.08;;;9.40;99.90;;;;;;5023828;28;20037;-80
2022/01/03 02:33:12;;;;;;;17.92;3.70;;;9.40;99.90;;;;;;5059665;28;20083;-80
2022/01/03 02:35:40;;;;;;;18.73;3.03;;;9.40;99.90;;;;;;5062638;28;20033;-80
2022/01/03 02:38:08;;;;;;;19.75;2.65;;;9.50;99.90;;;;;;5046874;28;20040;-80
2022/01/03 02:40:34;;;;;;;15.38;2.83;;;9.30;99.90;;;;;;5064284;28;20423;-81
2022/01/03 02:43:03;;;;;;;17.42;2.80;;;9.30;99.90;;;;;;5056799;28;20053;-80
2022/01/03 02:45:29;;;;;;;17.65;2.65;;;9.30;99.90;;;;;;5063258;28;20501;-81
2022/01/03 02:47:58;;;;;;;17.08;2.38;;;9.30;99.90;;;;;;5058598;28;20102;-80
2022/01/03 02:50:26;;;;;;;17.25;3.33;;;9.30;99.90;;;;;;5059045;28;20075;-80
2022/01/03 02:52:52;;;;;;;17.98;3.03;;;9.30;99.90;;;;;;5043236;28;20094;-80
2022/01/03 02:55:18;;;;;;;18.88;2.85;;;9.30;99.90;;;;;;5034081;28;20064;-80
2022/01/03 02:57:47;;;;;;;22.17;3.38;;;9.30;99.90;;;;;;5036501;28;20028;-83
2022/01/03 03:00:19;;;;;;;19.63;3.22;;;9.30;99.90;;;;;;5046396;28;20033;-82
2022/01/03 03:02:45;;;;;;;23.67;2.92;;;9.20;99.90;;;;;;5062918;28;20108;-82
2022/01/03 03:05:12;;;;;;;25.05;3.15;;;9.30;99.90;;;;;;5064267;28;20485;-83
2022/01/03 03:07:38;;;;;;;16.23;3.00;;;9.30;99.90;;;;;;5026387;28;20083;-82
2022/01/03 03:10:10;;;;;;;27.83;4.20;;;9.30;99.90;;;;;;5044994;28;20058;-83
2022/01/03 03:12:37;;;;;;;19.60;3.03;;;9.20;99.90;;;;;;5057313;28;20041;-83
2022/01/03 03:15:04;;;;;;;20.83;3.47;;;9.30;99.90;;;;;;5059324;28;20039;-83
2022/01/03 03:17:30;;;;;;;20.55;2.97;;;9.20;99.90;;;;;;5053690;28;20493;-82
2022/01/03 03:20:07;;;;;;;19.88;3.60;;;9.50;99.90;;;;;;5048240;28;20119;-83
2022/01/03 03:22:34;;;;;;;21.75;3.03;;;9.80;99.90;;;;;;5062736;28;20033;-83
2022/01/03 03:25:05;;;;;;;;;;;9.10;99.90;;;;;;5053159;28;20040;-83
2022/01/03 03:27:31;;;;;;;17.88;2.80;;;9.00;99.90;;;;;;5059739;28;20168;-83
2022/01/03 03:29:57;;;;;;;25.58;3.15;;;9.00;99.90;;;;;;5059544;28;20119;-83
2022/01/03 03:32:25;;;;;;;20.77;2.83;;;9.10;99.90;;;;;;5066278;28;20075;-84
2022/01/03 03:34:51;;;;;;;18.67;3.28;;;8.90;99.90;;;;;;5068986;28;20040;-83
2022/01/03 03:37:17;;;;;;;18.83;3.00;;;9.00;99.90;;;;;;5059035;28;20047;-82
2022/01/03 03:39:44;;;;;;;21.20;3.25;;;8.90;99.90;;;;;;5043993;28;20124;-83
2022/01/03 03:42:10;;;;;;;15.20;3.00;;;8.90;99.90;;;;;;5042251;28;20048;-82
2022/01/03 03:44:37;;;;;;;20.30;3.95;;;8.80;99.90;;;;;;5059320;28;20121;-82
2022/01/03 03:47:04;;;;;;;16.73;2.92;;;8.90;99.90;;;;;;5029249;28;20036;-82
2022/01/03 03:49:31;;;;;;;23.15;3.88;;;8.90;99.90;;;;;;5059076;28;20053;-82
2022/01/03 03:51:56;;;;;;;31.58;4.10;;;8.80;99.90;;;;;;5055107;28;20044;-82
2022/01/03 03:54:22;;;;;;;27.00;3.33;;;8.80;99.90;;;;;;5065824;28;20400;-83
2022/01/03 03:56:48;;;;;;;17.90;2.90;;;8.80;99.90;;;;;;5046403;28;20074;-83
2022/01/03 03:59:13;;;;;;;21.02;3.22;;;8.70;99.90;;;;;;5026124;28;20528;-82
2022/01/03 04:01:39;;;;;;;20.58;2.83;;;8.80;99.90;;;;;;5030432;28;20033;-82
2022/01/03 04:04:05;;;;;;;19.83;3.00;;;8.80;99.90;;;;;;5041168;28;20041;-83
2022/01/03 04:06:31;;;;;;;25.88;4.10;;;8.60;99.90;;;;;;5044880;28;20033;-83
2022/01/03 04:08:57;;;;;;;25.48;4.07;;;8.70;99.90;;;;;;5038618;28;20089;-82
2022/01/03 04:11:23;;;;;;;23.52;3.53;;;8.70;99.90;;;;;;5041589;28;20032;-83
2022/01/03 04:13:49;;;;;;;25.23;3.15;;;8.70;99.90;;;;;;5029498;28;20041;-84
2022/01/03 04:16:18;;;;;;;31.75;3.30;;;8.90;99.90;;;;;;5064456;28;20118;-83
2022/01/03 04:18:43;;;;;;;19.10;3.80;;;9.70;99.90;;;;;;5033510;28;20040;-83
2022/01/03 04:21:09;;;;;;;26.10;3.95;;;8.80;99.90;;;;;;5061228;28;20043;-83
2022/01/03 04:23:35;;;;;;;13.93;3.38;;;8.80;99.90;;;;;;5057035;28;20037;-83
2022/01/03 04:26:04;;;;;;;19.42;3.70;;;8.90;99.90;;;;;;5044549;28;20032;-83
2022/01/03 04:28:30;;;;;;;23.98;3.58;;;8.90;99.90;;;;;;5030379;28;20032;-83
2022/01/03 04:30:56;;;;;;;19.42;3.67;;;8.90;99.90;;;;;;5014761;28;20060;-83
2022/01/03 04:33:22;;;;;;;18.33;3.55;;;8.90;99.90;;;;;;5041884;28;20037;-83
2022/01/03 04:35:48;;;;;;;21.20;3.60;;;8.80;99.90;;;;;;5041813;28;20128;-83
2022/01/03 04:38:14;;;;;;;24.58;3.72;;;8.90;99.90;;;;;;5043896;28;20438;-83
2022/01/03 04:40:40;;;;;;;20.60;2.97;;;9.00;99.90;;;;;;5045094;28;20041;-82
2022/01/03 04:43:06;;;;;;;20.92;3.10;;;8.80;99.90;;;;;;5065150;28;20500;-84
2022/01/03 04:45:31;;;;;;;23.88;3.25;;;8.90;99.90;;;;;;5041553;28;20049;-83
2022/01/03 04:47:57;;;;;;;20.05;3.40;;;8.80;99.90;;;;;;5041609;28;20067;-83
2022/01/03 04:50:23;;;;;;;31.58;4.90;;;8.80;99.90;;;;;;5046157;28;20165;-83
2022/01/03 04:52:49;;;;;;;26.10;3.83;;;8.90;99.90;;;;;;5030584;28;20064;-83
2022/01/03 04:55:15;;;;;;;19.00;3.55;;;8.90;99.90;;;;;;5046475;28;20037;-83
2022/01/03 04:57:40;;;;;;;23.42;4.20;;;8.90;99.90;;;;;;5025798;28;20801;-82
2022/01/03 05:00:07;;;;;;;25.95;3.80;;;8.90;99.90;;;;;;5033172;28;20033;-82
2022/01/03 05:02:35;;;;;;;33.60;5.72;;;8.90;99.90;;;;;;5064225;28;20058;-82
2022/01/03 05:05:08;;;;;;;27.05;3.67;;;8.90;99.90;;;;;;5043933;28;20066;-82
2022/01/03 05:07:34;;;;;;;25.80;3.42;;;9.00;99.90;;;;;;5057103;28;20033;-82
2022/01/03 05:10:00;;;;;;;18.25;3.65;;;8.90;99.90;;;;;;5042141;28;20123;-82
2022/01/03 05:12:25;;;;;;;22.65;3.67;;;9.00;99.90;;;;;;5027857;28;20126;-80
2022/01/03 05:14:51;;;;;;;22.30;3.03;;;8.90;99.90;;;;;;5037177;28;20523;-82
2022/01/03 05:17:17;;;;;;;26.07;3.47;;;8.90;99.90;;;;;;5027605;28;20359;-83
2022/01/03 05:19:43;;;;;;;23.05;3.92;;;8.90;99.90;;;;;;5044286;28;20401;-83
2022/01/03 05:22:08;;;;;;;17.27;3.47;;;8.90;99.90;;;;;;5056977;28;20083;-83
2022/01/03 05:24:34;;;;;;;27.15;3.92;;;8.90;99.90;;;;;;5046001;28;20095;-81
2022/01/03 05:27:05;;;;;;;34.88;4.82;;;9.00;99.90;;;;;;5060885;28;20032;-86
2022/01/03 05:29:34;;;;;;;30.15;4.82;;;8.90;99.90;;;;;;5060524;28;20044;-81
2022/01/03 05:32:00;;;;;;;23.45;3.85;;;8.80;99.90;;;;;;5028802;28;20033;-84
2022/01/03 05:34:26;;;;;;;29.88;4.53;;;8.80;99.90;;;;;;5043990;28;20037;-84
2022/01/03 05:36:52;;;;;;;20.85;3.72;;;8.70;99.90;;;;;;5027605;28;20052;-81
2022/01/03 05:39:18;;;;;;;26.58;4.95;;;8.80;99.90;;;;;;5041379;28;20045;-82
2022/01/03 05:41:44;;;;;;;24.48;4.25;;;8.80;99.90;;;;;;5043688;28;20404;-82
2022/01/03 05:44:10;;;;;;;30.23;4.82;;;8.70;99.90;;;;;;5049233;28;20036;-81
2022/01/03 05:46:35;;;;;;;22.00;3.58;;;8.80;99.90;;;;;;5024043;28;20052;-82
2022/01/03 05:49:01;;;;;;;28.30;3.92;;;8.70;99.90;;;;;;5045651;28;20044;-82
2022/01/03 05:51:27;;;;;;;25.17;3.83;;;8.70;99.90;;;;;;5028085;28;20034;-82
2022/01/03 05:53:53;;;;;;;27.60;3.90;;;8.70;99.90;;;;;;5044197;28;20040;-81
2022/01/03 05:56:20;;;;;;;31.85;4.45;;;8.70;99.90;;;;;;5058250;28;20275;-82
2022/01/03 05:58:46;;;;;;;22.50;3.55;;;8.70;99.90;;;;;;5064234;28;20040;-82
2022/01/03 06:01:12;;;;;;;19.42;4.22;;;8.70;99.90;;;;;;5047101;28;20044;-83
2022/01/03 06:03:39;;;;;;;23.15;4.25;;;8.70;99.90;;;;;;5036520;28;20037;-82
2022/01/03 06:06:20;;;;;;;24.63;3.58;;;8.70;99.90;;;;;;5058722;28;20123;-82
2022/01/03 06:08:46;;;;;;;23.83;3.67;;;8.70;99.90;;;;;;5040496;28;20381;-82
2022/01/03 06:11:11;;;;;;;25.73;3.60;;;8.70;99.90;;;;;;5044911;28;20040;-83
2022/01/03 06:13:37;;;;;;;26.17;3.83;;;8.70;99.90;;;;;;5057665;28;20041;-82
2022/01/03 06:16:03;;;;;;;25.02;3.92;;;8.80;99.90;;;;;;5064656;28;20067;-82
2022/01/03 06:18:29;;;;;;;23.60;4.00;;;8.70;99.90;;;;;;5039067;28;20040;-82
2022/01/03 06:20:55;;;;;;;26.45;3.83;;;8.70;99.90;;;;;;5046650;28;20037;-82
2022/01/03 06:23:21;;;;;;;27.98;3.97;;;8.70;99.90;;;;;;5040464;28;20257;-82
2022/01/03 06:25:47;;;;;;;28.58;4.57;;;8.60;99.90;;;;;;5014740;28;20068;-82
2022/01/03 06:28:13;;;;;;;28.05;4.68;;;8.60;99.90;;;;;;5054521;28;20048;-82
2022/01/03 06:30:41;;;;;;;24.67;3.58;;;8.60;99.90;;;;;;5028240;28;20028;-82
2022/01/03 06:33:08;;;;;;;26.90;4.47;;;8.60;99.90;;;;;;5063242;28;20037;-82
2022/01/03 06:35:34;;;;;;;22.60;3.72;;;8.60;99.90;;;;;;5024952;28;20099;-82
2022/01/03 06:38:01;;;;;;;24.42;4.18;;;8.60;99.90;;;;;;5065926;28;20754;-82
2022/01/03 06:40:27;;;;;;;24.20;4.35;;;8.60;99.90;;;;;;5065087;28;20047;-81
2022/01/03 06:42:53;;;;;;;32.08;3.83;;;8.60;99.90;;;;;;5063646;28;20479;-82
2022/01/03 06:45:19;;;;;;;28.38;3.88;;;8.70;99.90;;;;;;5041624;28;20048;-82
2022/01/03 06:47:46;;;;;;;16.38;3.85;;;8.60;99.90;;;;;;5043222;28;20059;-82
2022/01/03 06:50:11;;;;;;;;;;;8.60;99.90;;;;;;5064769;28;20036;-82
2022/01/03 06:52:37;;;;;;;27.27;4.13;;;8.50;99.90;;;;;;5058077;28;20380;-82
2022/01/03 06:55:05;;;;;;;24.83;3.90;;;8.50;99.90;;;;;;5043765;28;20458;-82
2022/01/03 06:57:32;;;;;;;28.23;4.13;;;8.50;99.90;;;;;;5062487;28;20847;-82
2022/01/03 06:59:57;;;;;;;;;;;8.50;99.90;;;;;;5027827;28;20123;-82
2022/01/03 07:02:23;;;;;;;29.45;4.85;;;8.50;99.90;;;;;;5054647;28;19971;-82
2022/01/03 07:04:49;;;;;;;33.15;5.35;;;8.50;99.90;;;;;;5028688;28;20048;-82
2022/01/03 07:07:15;;;;;;;33.03;4.28;;;8.50;99.90;;;;;;5036603;28;20037;-82
2022/01/03 07:09:41;;;;;;;38.42;4.60;;;8.50;99.90;;;;;;5059950;28;20484;-82
2022/01/03 07:12:07;;;;;;;24.75;4.40;;;9.10;99.90;;;;;;5062990;28;20044;-82
2022/01/03 07:19:54;;;;;;;32.83;4.55;;;8.60;99.90;;;;;;5059091;28;20548;-80
2022/01/03 07:22:20;;;;;;;28.80;3.88;;;8.60;99.90;;;;;;5055159;28;20116;-80
2022/01/03 07:24:47;;;;;;;29.92;3.85;;;8.60;99.90;;;;;;5066920;28;20052;-80
2022/01/03 07:27:14;;;;;;;38.35;4.88;;;8.50;99.90;;;;;;5062180;28;20037;-80
2022/01/03 07:29:40;;;;;;;25.48;3.75;;;8.60;99.90;;;;;;5069109;28;20029;-79
2022/01/03 07:32:07;;;;;;;24.15;3.67;;;8.60;99.90;;;;;;5045604;28;20033;-82
2022/01/03 07:34:33;;;;;;;20.50;4.40;;;8.50;99.90;;;;;;5063856;28;20037;-82
2022/01/03 07:36:59;;;;;;;26.50;3.75;;;8.50;99.90;;;;;;5064540;28;20407;-82
2022/01/03 07:39:25;;;;;;;37.15;5.70;;;8.50;99.90;;;;;;5039338;28;20090;-83
2022/01/03 07:41:51;;;;;;;25.67;4.68;;;8.50;99.90;;;;;;5042664;28;20129;-82
2022/01/03 07:44:17;;;;;;;32.53;4.93;;;8.50;99.90;;;;;;5042120;28;20124;-82
2022/01/03 07:46:43;;;;;;;26.23;4.97;;;8.50;99.90;;;;;;5032893;28;20048;-83
2022/01/03 07:49:08;;;;;;;26.17;4.38;;;8.40;99.90;;;;;;5025036;28;20033;-82
2022/01/03 07:51:34;;;;;;;27.50;3.80;;;8.90;99.90;;;;;;5010714;28;20036;-82
2022/01/03 07:54:02;;;;;;;36.20;5.32;;;8.50;99.90;;;;;;5024263;28;20577;-82
2022/01/03 07:56:28;;;;;;;34.92;4.90;;;8.50;99.90;;;;;;5030915;28;20048;-82
2022/01/03 07:58:54;;;;;;;29.20;4.95;;;9.30;99.90;;;;;;5021261;28;20045;-83
2022/01/03 08:01:20;;;;;;;28.13;4.53;;;8.60;99.90;;;;;;5064942;28;20040;-82
2022/01/03 08:03:45;;;;;;;32.40;4.38;;;8.60;99.90;;;;;;5051526;28;20029;-80
2022/01/03 08:06:11;;;;;;;27.73;4.45;;;8.70;99.90;;;;;;5039854;28;20064;-82
2022/01/03 08:08:38;;;;;;;32.88;4.57;;;8.80;99.90;;;;;;5004380;28;20041;-82
2022/01/03 08:11:04;;;;;;;29.15;4.10;;;8.80;99.90;;;;;;5043145;28;20028;-82
2022/01/03 08:13:31;;;;;;;28.48;4.65;;;8.90;99.90;;;;;;5061463;28;20063;-82
2022/01/03 08:15:56;;;;;;;32.72;5.10;;;8.90;99.90;;;;;;5065463;28;20040;-82
2022/01/03 08:18:22;;;;;;;30.48;4.45;;;9.40;99.90;;;;;;5063710;28;20048;-82
2022/01/03 08:20:50;;;;;;;24.85;4.35;;;9.00;99.90;;;;;;5044416;28;20037;-82
2022/01/03 08:23:15;;;;;;;29.38;4.32;;;9.00;99.90;;;;;;5062747;28;20080;-82
2022/01/03 08:25:41;;;;;;;28.98;4.82;;;9.00;99.90;;;;;;5063507;28;20067;-81
2022/01/03 08:28:08;;;;;;;36.58;4.28;;;9.00;99.90;;;;;;5044868;28;20033;-81
2022/01/03 08:30:35;;;;;;;25.88;3.97;;;9.10;99.90;;;;;;5039726;28;20037;-81
2022/01/03 08:33:02;;;;;;;28.42;4.45;;;9.10;99.90;;;;;;5039948;28;20047;-81
2022/01/03 08:35:27;;;;;;;21.30;4.00;;;9.10;99.90;;;;;;5049488;28;20054;-81
2022/01/03 08:37:56;;;;;;;23.33;3.67;;;9.10;99.90;;;;;;5057784;28;20090;-81
2022/01/03 08:40:22;;;;;;;25.05;4.18;;;9.10;99.90;;;;;;5062359;28;20033;-81
2022/01/03 08:42:48;;;;;;;23.92;3.63;;;9.10;99.90;;;;;;5037289;28;20038;-81
2022/01/03 08:45:14;;;;;;;24.58;3.58;;;9.20;99.90;;;;;;5046887;28;20501;-82
2022/01/03 08:47:40;;;;;;;22.38;3.42;;;9.20;99.90;;;;;;5007861;28;20052;-81
2022/01/03 08:50:07;;;;;;;26.80;4.25;;;9.10;99.90;;;;;;5046723;28;20101;-81
2022/01/03 08:52:32;;;;;;;21.05;3.53;;;9.20;99.90;;;;;;5046873;28;20025;-81
2022/01/03 08:54:59;;;;;;;23.73;4.35;;;9.20;99.90;;;;;;5043544;28;20098;-82
2022/01/03 08:57:25;;;;;;;18.67;3.42;;;9.20;99.90;;;;;;5040937;28;20083;-81
2022/01/03 08:59:51;;;;;;;25.58;3.80;;;9.30;99.90;;;;;;5040722;28;20118;-78
2022/01/03 09:02:18;;;;;;;33.15;3.88;;;9.40;99.90;;;;;;5066044;28;20465;-78
2022/01/03 09:04:44;;;;;;;;;;;9.40;99.90;;;;;;5067750;28;20109;-78
2022/01/03 09:07:10;;;;;;;25.02;3.13;;;9.30;99.90;;;;;;5046095;28;19917;-77
2022/01/03 09:09:36;;;;;;;25.05;4.55;;;9.30;99.90;;;;;;5064460;28;20059;-77
2022/01/03 09:12:06;;;;;;;28.15;3.88;;;9.40;99.90;;;;;;5027358;28;20033;-79
2022/01/03 09:14:32;;;;;;;25.27;4.10;;;9.40;99.90;;;;;;5036580;28;20193;-77
2022/01/03 09:16:58;;;;;;;28.80;4.18;;;9.50;99.90;;;;;;5064062;28;20033;-77
2022/01/03 09:19:24;;;;;;;27.02;2.90;;;9.50;99.90;;;;;;5060378;28;20123;-79
2022/01/03 09:21:50;;;;;;;22.83;3.55;;;9.50;99.90;;;;;;5038023;28;20492;-78
2022/01/03 09:24:22;;;;;;;24.35;3.72;;;9.50;99.90;;;;;;5061759;28;20040;-78
2022/01/03 09:29:34;;;;;;;20.90;3.85;;;9.50;99.90;;;;;;5048599;28;20469;-77
2022/01/03 09:32:00;;;;;;;29.42;4.82;;;9.60;99.90;;;;;;5026819;28;20040;-78
2022/01/03 09:34:26;;;;;;;20.60;3.83;;;9.60;99.90;;;;;;5040552;28;20048;-79
2022/01/03 09:36:52;;;;;;;28.70;4.45;;;9.70;99.90;;;;;;5060911;28;20484;-80
2022/01/03 09:39:18;;;;;;;28.83;4.70;;;9.70;99.90;;;;;;5045288;28;20052;-80
2022/01/03 09:41:55;;;;;;;27.67;3.30;;;9.60;99.90;;;;;;5039134;28;20054;-79
2022/01/03 09:44:26;;;;;;;32.30;4.47;;;9.70;99.90;;;;;;5058958;28;20115;-79
2022/01/03 09:46:52;;;;;;;25.10;4.40;;;9.70;99.90;;;;;;5045123;28;20144;-80
2022/01/03 09:49:18;;;;;;;29.42;4.45;;;9.80;99.90;;;;;;5050644;28;20356;-78
2022/01/03 09:51:45;;;;;;;25.80;3.90;;;9.90;99.90;;;;;;5038971;28;20048;-78
2022/01/03 09:54:15;;;;;;;21.98;4.45;;;9.90;99.90;;;;;;5016282;28;20527;-78
2022/01/03 09:56:42;;;;;;;23.48;3.17;;;10.00;99.90;;;;;;5064304;28;20044;-79
2022/01/03 09:59:09;;;;;;;24.13;3.88;;;10.40;99.90;;;;;;5044844;28;20112;-80
2022/01/03 10:01:35;;;;;;;25.20;4.13;;;10.30;99.90;;;;;;5061850;28;20044;-79
2022/01/03 10:04:02;;;;;;;20.38;3.80;;;10.50;99.90;;;;;;5048405;28;20052;-80
2022/01/03 10:06:28;;;;;;;25.58;3.92;;;10.60;99.90;;;;;;5030650;28;20506;-79
2022/01/03 10:08:55;;;;;;;21.55;3.50;;;10.50;99.90;;;;;;5066828;28;20143;-78
2022/01/03 10:11:21;;;;;;;;;;;10.40;99.90;;;;;;5064779;28;20047;-79
2022/01/03 10:13:47;;;;;;;22.77;3.35;;;10.30;99.90;;;;;;5067515;28;19923;-77
2022/01/03 10:16:13;;;;;;;21.05;3.45;;;10.40;99.90;;;;;;5046540;28;20105;-78
2022/01/03 10:18:39;;;;;;;16.15;3.70;;;10.40;99.90;;;;;;5064337;28;20040;-79
2022/01/03 10:21:08;;;;;;;33.60;4.82;;;10.60;99.90;;;;;;5045121;28;20097;-78
2022/01/03 10:23:34;;;;;;;23.50;4.22;;;10.70;99.90;;;;;;5030388;28;20353;-78
2022/01/03 10:26:20;;;;;;;19.23;3.20;;;11.00;99.90;;;;;;5065509;28;20067;-77
2022/01/03 10:28:47;;;;;;;22.80;4.13;;;11.10;99.90;;;;;;5046840;28;20106;-78
2022/01/03 10:31:26;;;;;;;;;;;11.40;99.90;;;;;;5058829;28;20077;-78
2022/01/03 10:34:06;;;;;;;24.98;3.92;;;11.70;99.90;;;;;;5067994;28;19927;-78
2022/01/03 10:36:34;;;;;;;17.90;3.35;;;12.00;99.90;;;;;;5052829;28;20460;-78
2022/01/03 10:39:21;;;;;;;22.23;3.53;;;12.30;99.90;;;;;;5060571;28;20046;-78
2022/01/03 10:41:52;;;;;;;20.40;3.65;;;12.10;99.90;;;;;;5065681;28;20167;-78
2022/01/03 10:44:34;;;;;;;22.40;3.50;;;12.10;99.90;;;;;;5064844;28;20072;-78
2022/01/03 10:47:01;;;;;;;24.75;4.03;;;12.30;99.90;;;;;;5061315;28;20036;-77
2022/01/03 10:49:27;;;;;;;15.32;3.30;;;12.60;99.90;;;;;;5069715;28;20417;-78
2022/01/03 10:52:22;;;;;;;20.23;2.97;;;12.60;99.90;;;;;;5047103;28;20404;-77
2022/01/03 10:55:18;;;;;;;20.48;3.65;;;12.70;99.90;;;;;;5063860;28;20514;-79
2022/01/03 10:57:55;;;;;;;17.42;3.00;;;12.30;99.90;;;;;;5061857;28;20042;-78
2022/01/03 11:00:34;;;;;;;22.42;3.67;;;12.00;99.90;;;;;;5062726;28;20047;-78
2022/01/03 11:05:47;;;;;;;22.67;3.55;;;11.50;99.90;;;;;;5065772;28;20507;-77
2022/01/03 11:10:59;;;;;;;21.63;3.63;;;11.80;99.90;;;;;;5061411;28;20083;-80
2022/01/03 11:13:24;;;;;;;20.20;3.20;;;11.70;99.90;;;;;;5061356;28;20059;-79
2022/01/03 11:15:52;;;;;;;19.45;3.38;;;11.60;99.90;;;;;;5044675;28;20048;-78
2022/01/03 11:18:22;;;;;;;24.45;3.70;;;11.40;99.90;;;;;;5057961;28;20071;-78
2022/01/03 11:21:09;;;;;;;23.35;4.07;;;11.50;99.90;;;;;;5046917;28;20469;-79
2022/01/03 11:23:37;;;;;;;18.02;3.67;;;11.50;99.90;;;;;;5061058;28;20040;-79
2022/01/03 11:26:05;;;;;;;20.63;3.38;;;11.40;99.90;;;;;;5065668;28;20075;-78
2022/01/03 11:28:31;;;;;;;23.10;2.97;;;11.40;99.90;;;;;;5067314;28;20472;-78
2022/01/03 11:30:59;;;;;;;24.10;3.67;;;11.30;99.90;;;;;;5040148;28;20054;-79
2022/01/03 11:33:25;;;;;;;22.30;3.97;;;11.40;99.90;;;;;;5057126;28;20439;-79
2022/01/03 11:35:52;;;;;;;17.05;3.10;;;11.40;99.90;;;;;;5060361;28;20113;-78
2022/01/03 11:38:22;;;;;;;18.60;3.08;;;11.60;99.90;;;;;;5052302;28;20051;-78
2022/01/03 11:40:49;;;;;;;17.17;3.17;;;11.60;99.90;;;;;;5059108;28;20052;-78
2022/01/03 11:43:15;;;;;;;22.60;3.38;;;11.80;99.90;;;;;;5062475;28;20404;-78
2022/01/03 11:45:41;;;;;;;;;;;12.00;99.90;;;;;;5045033;28;20044;-78
2022/01/03 11:48:08;;;;;;;23.90;3.78;;;12.20;99.90;;;;;;5059963;28;19977;-78
2022/01/03 11:50:37;;;;;;;18.92;3.72;;;12.30;99.90;;;;;;5039630;28;20420;-78
2022/01/03 11:53:08;;;;;;;19.63;3.17;;;12.00;99.90;;;;;;5062936;28;20079;-78
2022/01/03 11:55:34;;;;;;;18.25;3.42;;;12.00;99.90;;;;;;5058532;28;20037;-77
2022/01/03 12:06:04;;;;;;;19.55;3.30;;;11.70;99.90;;;;;;5044126;28;20037;-79
2022/01/03 12:08:33;;;;;;;22.30;3.53;;;11.60;99.90;;;;;;5060534;28;20048;-79
2022/01/03 12:11:00;;;;;;;20.77;2.75;;;11.70;99.90;;;;;;5061002;28;20044;-79
2022/01/03 12:13:46;;;;;;;18.02;3.45;;;11.40;99.90;;;;;;5065538;28;20044;-78
2022/01/03 12:16:15;;;;;;;24.05;3.65;;;11.30;99.90;;;;;;5034160;28;20109;-78
2022/01/03 12:19:00;;;;;;;25.60;3.75;;;11.40;99.90;;;;;;5054638;28;20040;-78
2022/01/03 12:21:46;;;;;;;;;;;11.20;99.90;;;;;;5042769;28;20043;-78
2022/01/03 12:24:30;;;;;;;24.77;3.35;;;11.10;99.90;;;;;;5045161;28;19925;-79
2022/01/03 12:27:14;;;;;;;20.40;3.63;;;11.10;99.90;;;;;;5040343;28;20037;-79
2022/01/03 12:29:55;;;;;;;22.40;4.15;;;11.10;99.90;;;;;;5054745;28;20048;-78
2022/01/03 12:32:28;;;;;;;18.27;3.35;;;11.10;99.90;;;;;;5060215;28;20037;-77
2022/01/03 12:35:09;;;;;;;17.83;3.63;;;11.30;99.90;;;;;;5060671;28;20501;-79
2022/01/03 12:37:39;;;;;;;17.40;3.00;;;11.40;99.90;;;;;;5057493;28;20102;-77
2022/01/03 12:40:05;;;;;;;15.10;3.25;;;11.60;99.90;;;;;;5038348;28;20052;-77
2022/01/03 12:42:50;;;;;;;23.73;3.90;;;11.60;99.90;;;;;;5041067;28;20033;-78
2022/01/03 12:45:17;;;;;;;18.75;3.67;;;11.70;99.90;;;;;;5045701;28;20037;-78
2022/01/03 12:47:43;;;;;;;23.45;3.90;;;11.80;99.90;;;;;;5063989;28;20135;-79
2022/01/03 12:50:20;;;;;;;23.88;3.55;;;11.90;99.90;;;;;;5057819;28;20037;-78
2022/01/03 12:52:46;;;;;;;13.80;2.92;;;11.80;99.90;;;;;;5059419;28;20048;-78
2022/01/03 12:55:48;;;;;;;23.88;3.88;;;11.60;99.90;;;;;;5040253;28;20055;-79
2022/01/03 12:58:14;;;;;;;20.80;3.28;;;11.50;99.90;;;;;;5055722;28;20085;-79
2022/01/03 13:00:41;;;;;;;22.60;3.67;;;11.40;99.90;;;;;;5046038;28;20045;-79
2022/01/03 13:03:28;;;;;;;25.88;4.00;;;11.30;99.90;;;;;;5030699;28;20278;-79
2022/01/03 13:06:14;;;;;;;21.77;3.55;;;11.40;99.90;;;;;;5057806;28;20048;-79
2022/01/03 13:08:42;;;;;;;17.58;2.58;;;11.20;99.90;;;;;;5053002;28;20033;-81
2022/01/03 13:11:10;;;;;;;15.48;3.17;;;11.10;99.90;;;;;;5048590;28;20404;-86
2022/01/03 13:13:37;;;;;;;22.60;3.25;;;11.10;99.90;;;;;;5042269;28;20044;-80
2022/01/03 13:16:55;;;;;;;17.45;3.33;;;11.10;99.90;;;;;;5047722;28;20047;-80
2022/01/03 13:19:33;;;;;;;19.23;3.58;;;11.10;99.90;;;;;;5038658;28;20056;-79